Tropical Cyclones
[Index]
Main Index Home Page Stock Weather Photos Extreme Storms Discussion Storm News and Storm Chasing Reports Tropical Cyclones / Hurricanes / Typhoons Weather Data and Links Wild Fires / Bushfires Weather Observation Techniques Weather Picture Catalogue Tornado Pictures and Reports Stock Video Footage and DVDs for sale
Season 2014-2015 Tropical Cyclone GLENDA Track Map
Season 2014-2015 Summaries: [BoM-AU] [JTWC-AU] [JTWC-SIO] [JTWC-SPAC] [JTWC-SH]
<<- Previous TC | JTWC 2014-2015 Season | Next TC ->>

click for intensity scale information  Lat/long Grid: Show Hide

 Date Labels: Show Hide

Joint Typhoon Warning Centre Cyclone Data

Name: GLENDA

22 Feb 2015 06:00 UTC to 01 Mar 2015 12:00 UTC

    date/time    lat    long     hPa   cat  kts
2015-02-22 06   13.4    78.3    1004         25          
2015-02-22 12   13.2    77.1    1000         30          
2015-02-22 18   13.2    76.1    1000         30          
2015-02-23 00   13.6    75.4    1000         30          
2015-02-23 06   14.1    74.9    1000         30          
2015-02-23 12   15.0    74.5    1000         30          
2015-02-23 18   16.0    73.6    1000         30          
2015-02-24 00   16.4    72.8    1000         30          
2015-02-24 06   16.6    72.1     996         35          
2015-02-24 12   16.8    71.4     993    1    40          
2015-02-24 18   17.2    70.5     985    1    50          
2015-02-25 00   17.3    69.6     982    2    55          
2015-02-25 06   17.7    69.1     985    1    50          
2015-02-25 12   18.6    68.6     985    1    50          
2015-02-25 18   18.9    68.4     985    1    50          
2015-02-26 00   19.7    67.8     985    1    50          
2015-02-26 06   20.9    67.6     989    1    45          
2015-02-26 12   21.5    67.4     989    1    45          
2015-02-26 18   22.2    67.2     989    1    45          
2015-02-27 00   22.7    66.9     989    1    45          
2015-02-27 06   23.6    66.7     989    1    45          
2015-02-27 12   24.3    66.7     989    1    45          
2015-02-27 18   25.3    66.9     985    1    50          
2015-02-28 00   26.5    67.1     985    1    50          
2015-02-28 06   27.7    67.7     985    1    50          
2015-02-28 12   29.1    68.0     985    1    50          
2015-02-28 18   30.5    68.3     989    1    45          
2015-03-01 00   31.8    68.8     989    1    45          
2015-03-01 06   32.7    69.3     993    1    40          
2015-03-01 12   34.4    70.4     993    1    40          
Winds are 1-min average.

Tropical cyclone tracks developed by Michael Bath using data from the Joint Typhoon Warning Centre Best Tracks and Google Maps.


[Australian Severe Weather index] [Copyright Notice] [Email Contacts] [Search This Site] [Privacy Policy]
Document: tropical_cyclone_glenda.htm Updated: 28 June 2017